This is the latest recevied weather packets stored in our database for station/object N2WH. If no packets are shown the sender has not sent any weather packets the latest 1 day(s).
| Time | Temp. | Humidity | Pressure | Rain* | Wind** | Luminosity | Snow |
|---|---|---|---|---|---|---|---|
| 1778005845 | 28.89° C | 35% | 1009.8 hPa | 0 mm | 0.89 m/s, 222° | 728 W/m² | - |
| 1778005541 | 29.44° C | 34% | 1009.7 hPa | 0 mm | 0.89 m/s, 273° | 732 W/m² | - |
| 1778005238 | 28.33° C | 36% | 1009.7 hPa | 0 mm | 0.45 m/s, 290° | 689 W/m² | - |
| 1778004935 | 27.78° C | 38% | 1009.6 hPa | 0 mm | 0 m/s | 637 W/m² | - |
| 1778004632 | 27.22° C | 39% | 1010 hPa | 0 mm | 0.45 m/s, 180° | 611 W/m² | - |
| 1778004328 | 27.78° C | 38% | 1010.2 hPa | 0 mm | 0.89 m/s, 246° | 586 W/m² | - |
| 1778004026 | 27.22° C | 39% | 1010.2 hPa | 0 mm | 0.45 m/s, 148° | 644 W/m² | - |
| 1778003720 | 28.33° C | 37% | 1009.8 hPa | 0 mm | 0.89 m/s, 74° | 735 W/m² | - |
| 1778003418 | 28.33° C | 38% | 1010.2 hPa | 0 mm | 1.34 m/s, 264° | 720 W/m² | - |
| 1778003115 | 27.78° C | 43% | 1010.3 hPa | 0 mm | 0 m/s | 670 W/m² | - |
| 1778002811 | 27.78° C | 42% | 1010.3 hPa | 0 mm | 0.45 m/s, 199° | 703 W/m² | - |
| 1778002508 | 27.22° C | 41% | 1010.3 hPa | 0 mm | 1.34 m/s, 286° | 731 W/m² | - |
| 1778002204 | 27.78° C | 39% | 1010.4 hPa | 0 mm | 0.89 m/s, 181° | 690 W/m² | - |
| 1778001902 | 28.33° C | 41% | 1010.4 hPa | 0 mm | 0.45 m/s, 170° | 700 W/m² | - |
| 1778001597 | 27.22° C | 42% | 1010.5 hPa | 0 mm | 0 m/s | 721 W/m² | - |
| 1778001293 | 27.78° C | 43% | 1010.6 hPa | 0 mm | 0.45 m/s, 197° | 264 W/m² | - |
| 1778000990 | 27.22° C | 42% | 1010.5 hPa | 0 mm | 0.89 m/s, 224° | 748 W/m² | - |
| 1778000687 | 27.22° C | 41% | 1010.7 hPa | 0 mm | 1.34 m/s, 199° | 742 W/m² | - |
| 1778000382 | 26.67° C | 45% | 1010.5 hPa | 0 mm | 0.89 m/s, 15° | 727 W/m² | - |
| 1778000078 | 26.67° C | 43% | 1010.6 hPa | 0 mm | 2.24 m/s, 205° | 721 W/m² | - |
| 1777999774 | 26.11° C | 44% | 1010.8 hPa | 0 mm | 1.34 m/s, 259° | 724 W/m² | - |
| 1777999471 | 26.11° C | 45% | 1010.8 hPa | 0 mm | 1.34 m/s, 313° | 704 W/m² | - |
| 1777999169 | 26.11° C | 46% | 1010.8 hPa | 0 mm | 0.89 m/s, 102° | 700 W/m² | - |
| 1777998867 | 26.67° C | 44% | 1010.9 hPa | 0 mm | 0.45 m/s, 157° | 711 W/m² | - |
| 1777998566 | 26.67° C | 45% | 1010.9 hPa | 0 mm | 1.79 m/s, 242° | 693 W/m² | - |
* Rain latest hour (hover to see other rain measurements)
** Current wind speed in m/s (hover to see current wind gust speed)